Kennebec, North Carolina
Current Conditions -  °F | °C
As of 4:35 AM on Saturday 20 Dec 2014 (Local Time) from KHRJ Reporting Station
Clear Clear  
Wind Chill: 39°   Ceiling: Unl
Heat Index: 39°   Visibility: 10mi
Dew Point: 32°   Wind: 3mph
Humidity: 75%   Direction: 50°NE
Pressure: 30.23"   Gusts: NA
Location:  35.5718°N, 78.7112°W
Report Text: KHRJ 200935Z AUTO 05003KT 10SM CLR 04/00 A3023 RMK AO2 T00401001
Loading
Personal Weather Stations






























Interactive Weather Map New forecast layout! Learn more

10-Day Weather Forecast

Advertisements
Track Severe Weather on mobile